sensor_id;sensor_type;location;lat;lon;timestamp;temperature;humidity
40340;DHT22;26044;50.864;20.658;2022-08-21T00:01:49;21.10;99.90
40340;DHT22;26044;50.864;20.658;2022-08-21T00:04:16;21.10;99.90
40340;DHT22;26044;50.864;20.658;2022-08-21T00:06:48;21.10;99.90
40340;DHT22;26044;50.864;20.658;2022-08-21T00:09:15;21.00;99.90
40340;DHT22;26044;50.864;20.658;2022-08-21T00:11:42;21.00;99.90
40340;DHT22;26044;50.864;20.658;2022-08-21T00:14:10;21.00;99.90
40340;DHT22;26044;50.864;20.658;2022-08-21T00:16:37;21.00;99.90
40340;DHT22;26044;50.864;20.658;2022-08-21T00:19:05;21.00;99.90
40340;DHT22;26044;50.864;20.658;2022-08-21T00:21:33;21.00;99.90
40340;DHT22;26044;50.864;20.658;2022-08-21T00:24:01;21.00;99.90
40340;DHT22;26044;50.864;20.658;2022-08-21T00:26:28;21.00;99.90
40340;DHT22;26044;50.864;20.658;2022-08-21T00:28:54;21.00;99.90
40340;DHT22;26044;50.864;20.658;2022-08-21T00:31:24;21.00;99.90
40340;DHT22;26044;50.864;20.658;2022-08-21T00:33:51;20.90;99.90
40340;DHT22;26044;50.864;20.658;2022-08-21T00:36:27;20.90;99.90
40340;DHT22;26044;50.864;20.658;2022-08-21T00:38:53;20.80;99.90
40340;DHT22;26044;50.864;20.658;2022-08-21T00:41:20;20.80;99.90
40340;DHT22;26044;50.864;20.658;2022-08-21T00:44:08;20.80;99.90
40340;DHT22;26044;50.864;20.658;2022-08-21T00:46:37;20.80;99.90
40340;DHT22;26044;50.864;20.658;2022-08-21T00:49:05;20.80;99.90
40340;DHT22;26044;50.864;20.658;2022-08-21T00:51:43;20.80;99.90
40340;DHT22;26044;50.864;20.658;2022-08-21T00:54:13;20.70;99.90
40340;DHT22;26044;50.864;20.658;2022-08-21T00:56:46;20.80;99.90
40340;DHT22;26044;50.864;20.658;2022-08-21T00:59:16;20.80;99.90
40340;DHT22;26044;50.864;20.658;2022-08-21T01:01:44;20.70;99.90
40340;DHT22;26044;50.864;20.658;2022-08-21T01:04:12;20.80;99.90
40340;DHT22;26044;50.864;20.658;2022-08-21T01:06:40;20.70;99.90
40340;DHT22;26044;50.864;20.658;2022-08-21T01:09:06;20.70;99.90
40340;DHT22;26044;50.864;20.658;2022-08-21T01:11:33;20.80;99.90
40340;DHT22;26044;50.864;20.658;2022-08-21T01:14:01;20.80;99.90
40340;DHT22;26044;50.864;20.658;2022-08-21T01:16:28;20.80;99.90
40340;DHT22;26044;50.864;20.658;2022-08-21T01:18:55;20.80;99.90
40340;DHT22;26044;50.864;20.658;2022-08-21T01:21:25;20.70;99.90
40340;DHT22;26044;50.864;20.658;2022-08-21T01:23:56;20.60;99.90
40340;DHT22;26044;50.864;20.658;2022-08-21T01:26:28;20.70;99.90
40340;DHT22;26044;50.864;20.658;2022-08-21T01:29:02;20.70;99.90
40340;DHT22;26044;50.864;20.658;2022-08-21T01:31:32;20.70;99.90
40340;DHT22;26044;50.864;20.658;2022-08-21T01:33:59;20.60;99.90
40340;DHT22;26044;50.864;20.658;2022-08-21T01:36:27;20.60;99.90
40340;DHT22;26044;50.864;20.658;2022-08-21T01:38:53;20.60;99.90
40340;DHT22;26044;50.864;20.658;2022-08-21T01:41:20;20.50;99.90
40340;DHT22;26044;50.864;20.658;2022-08-21T01:43:47;20.50;99.90
40340;DHT22;26044;50.864;20.658;2022-08-21T01:46:15;20.50;99.90
40340;DHT22;26044;50.864;20.658;2022-08-21T01:48:42;20.50;99.90
40340;DHT22;26044;50.864;20.658;2022-08-21T01:51:09;20.50;99.90
40340;DHT22;26044;50.864;20.658;2022-08-21T01:53:37;20.40;99.90
40340;DHT22;26044;50.864;20.658;2022-08-21T01:56:06;20.40;99.90
40340;DHT22;26044;50.864;20.658;2022-08-21T01:58:40;20.40;99.90
40340;DHT22;26044;50.864;20.658;2022-08-21T02:01:07;20.40;99.90
40340;DHT22;26044;50.864;20.658;2022-08-21T02:03:35;20.30;99.90
40340;DHT22;26044;50.864;20.658;2022-08-21T02:06:03;20.30;99.90
40340;DHT22;26044;50.864;20.658;2022-08-21T02:08:30;20.30;99.90
40340;DHT22;26044;50.864;20.658;2022-08-21T02:10:57;20.30;99.90
40340;DHT22;26044;50.864;20.658;2022-08-21T02:13:24;20.20;99.90
40340;DHT22;26044;50.864;20.658;2022-08-21T02:15:51;20.10;99.90
40340;DHT22;26044;50.864;20.658;2022-08-21T02:18:18;20.10;99.90
40340;DHT22;26044;50.864;20.658;2022-08-21T02:20:47;20.10;99.90
40340;DHT22;26044;50.864;20.658;2022-08-21T02:23:21;20.00;99.90
40340;DHT22;26044;50.864;20.658;2022-08-21T02:25:54;20.00;99.90
40340;DHT22;26044;50.864;20.658;2022-08-21T02:28:21;19.90;99.90
40340;DHT22;26044;50.864;20.658;2022-08-21T02:30:49;20.00;99.90
40340;DHT22;26044;50.864;20.658;2022-08-21T02:33:18;19.90;99.90
40340;DHT22;26044;50.864;20.658;2022-08-21T02:35:46;19.90;99.90
40340;DHT22;26044;50.864;20.658;2022-08-21T02:38:15;19.90;99.90
40340;DHT22;26044;50.864;20.658;2022-08-21T02:40:44;19.90;99.90
40340;DHT22;26044;50.864;20.658;2022-08-21T02:43:17;19.90;99.90
40340;DHT22;26044;50.864;20.658;2022-08-21T02:45:45;19.80;99.90
40340;DHT22;26044;50.864;20.658;2022-08-21T02:48:17;19.80;99.90
40340;DHT22;26044;50.864;20.658;2022-08-21T02:50:48;19.80;99.90
40340;DHT22;26044;50.864;20.658;2022-08-21T02:53:16;19.80;99.90
40340;DHT22;26044;50.864;20.658;2022-08-21T02:55:48;19.80;99.90
40340;DHT22;26044;50.864;20.658;2022-08-21T02:58:19;19.80;99.90
40340;DHT22;26044;50.864;20.658;2022-08-21T03:00:46;19.80;99.90
40340;DHT22;26044;50.864;20.658;2022-08-21T03:03:13;19.80;99.90
40340;DHT22;26044;50.864;20.658;2022-08-21T03:05:42;19.80;99.90
40340;DHT22;26044;50.864;20.658;2022-08-21T03:08:11;19.80;99.90
40340;DHT22;26044;50.864;20.658;2022-08-21T03:10:40;19.70;99.90
40340;DHT22;26044;50.864;20.658;2022-08-21T03:13:08;19.80;99.90
40340;DHT22;26044;50.864;20.658;2022-08-21T03:15:35;19.80;99.90
40340;DHT22;26044;50.864;20.658;2022-08-21T03:18:04;19.80;99.90
40340;DHT22;26044;50.864;20.658;2022-08-21T03:20:32;19.80;99.90
40340;DHT22;26044;50.864;20.658;2022-08-21T03:23:00;19.70;99.90
40340;DHT22;26044;50.864;20.658;2022-08-21T03:25:28;19.70;99.90
40340;DHT22;26044;50.864;20.658;2022-08-21T03:28:09;19.70;99.90
40340;DHT22;26044;50.864;20.658;2022-08-21T03:30:40;19.70;99.90
40340;DHT22;26044;50.864;20.658;2022-08-21T03:33:07;19.70;99.90
40340;DHT22;26044;50.864;20.658;2022-08-21T03:35:33;19.60;99.90
40340;DHT22;26044;50.864;20.658;2022-08-21T03:38:00;19.60;99.90
40340;DHT22;26044;50.864;20.658;2022-08-21T03:40:27;19.60;99.90
40340;DHT22;26044;50.864;20.658;2022-08-21T03:42:54;19.60;99.90
40340;DHT22;26044;50.864;20.658;2022-08-21T03:45:21;19.60;99.90
40340;DHT22;26044;50.864;20.658;2022-08-21T03:47:59;19.60;99.90
40340;DHT22;26044;50.864;20.658;2022-08-21T03:50:29;19.50;99.90
40340;DHT22;26044;50.864;20.658;2022-08-21T03:52:56;19.50;99.90
40340;DHT22;26044;50.864;20.658;2022-08-21T03:55:24;19.60;99.90
40340;DHT22;26044;50.864;20.658;2022-08-21T03:57:51;19.60;99.90
40340;DHT22;26044;50.864;20.658;2022-08-21T04:00:19;19.60;99.90
40340;DHT22;26044;50.864;20.658;2022-08-21T04:02:46;19.60;99.90
40340;DHT22;26044;50.864;20.658;2022-08-21T04:05:15;19.70;99.90
40340;DHT22;26044;50.864;20.658;2022-08-21T04:08:02;19.70;99.90
40340;DHT22;26044;50.864;20.658;2022-08-21T04:10:31;19.70;99.90
40340;DHT22;26044;50.864;20.658;2022-08-21T04:12:58;19.80;99.90
40340;DHT22;26044;50.864;20.658;2022-08-21T04:15:26;19.80;99.90
40340;DHT22;26044;50.864;20.658;2022-08-21T04:17:54;19.80;99.90
40340;DHT22;26044;50.864;20.658;2022-08-21T04:20:22;19.80;99.90
40340;DHT22;26044;50.864;20.658;2022-08-21T04:22:50;19.90;99.90
40340;DHT22;26044;50.864;20.658;2022-08-21T04:25:19;19.90;99.90
40340;DHT22;26044;50.864;20.658;2022-08-21T04:27:46;19.90;99.90
40340;DHT22;26044;50.864;20.658;2022-08-21T04:30:14;19.90;99.90
40340;DHT22;26044;50.864;20.658;2022-08-21T04:32:43;20.00;99.90
40340;DHT22;26044;50.864;20.658;2022-08-21T04:35:11;20.00;99.90
40340;DHT22;26044;50.864;20.658;2022-08-21T04:37:38;20.00;99.90
40340;DHT22;26044;50.864;20.658;2022-08-21T04:40:09;19.90;99.90
40340;DHT22;26044;50.864;20.658;2022-08-21T04:42:44;20.10;99.90
40340;DHT22;26044;50.864;20.658;2022-08-21T04:45:29;20.10;99.90
40340;DHT22;26044;50.864;20.658;2022-08-21T04:47:59;20.20;99.90
40340;DHT22;26044;50.864;20.658;2022-08-21T04:50:50;20.20;99.90
40340;DHT22;26044;50.864;20.658;2022-08-21T04:53:38;20.30;99.90
40340;DHT22;26044;50.864;20.658;2022-08-21T04:56:14;20.40;99.90
40340;DHT22;26044;50.864;20.658;2022-08-21T04:58:43;20.60;99.90
40340;DHT22;26044;50.864;20.658;2022-08-21T05:01:17;20.70;99.90
40340;DHT22;26044;50.864;20.658;2022-08-21T05:03:47;20.70;99.90
40340;DHT22;26044;50.864;20.658;2022-08-21T05:06:16;20.70;99.90
40340;DHT22;26044;50.864;20.658;2022-08-21T05:08:44;20.70;99.90
40340;DHT22;26044;50.864;20.658;2022-08-21T05:11:12;20.70;99.90
40340;DHT22;26044;50.864;20.658;2022-08-21T05:13:39;20.70;99.90
40340;DHT22;26044;50.864;20.658;2022-08-21T05:16:07;20.70;99.90
40340;DHT22;26044;50.864;20.658;2022-08-21T05:18:34;20.80;99.90
40340;DHT22;26044;50.864;20.658;2022-08-21T05:21:02;20.80;99.90
40340;DHT22;26044;50.864;20.658;2022-08-21T05:23:30;20.90;99.90
40340;DHT22;26044;50.864;20.658;2022-08-21T05:25:57;20.90;99.90
40340;DHT22;26044;50.864;20.658;2022-08-21T05:28:25;20.90;99.90
40340;DHT22;26044;50.864;20.658;2022-08-21T05:30:53;20.90;99.90
40340;DHT22;26044;50.864;20.658;2022-08-21T05:33:20;20.90;99.90
40340;DHT22;26044;50.864;20.658;2022-08-21T05:35:50;21.00;99.90
40340;DHT22;26044;50.864;20.658;2022-08-21T05:38:17;21.00;99.90
40340;DHT22;26044;50.864;20.658;2022-08-21T05:40:45;21.00;99.90
40340;DHT22;26044;50.864;20.658;2022-08-21T05:43:13;21.10;99.90
40340;DHT22;26044;50.864;20.658;2022-08-21T05:45:40;21.20;99.90
40340;DHT22;26044;50.864;20.658;2022-08-21T05:48:16;21.10;99.90
40340;DHT22;26044;50.864;20.658;2022-08-21T05:50:45;21.20;99.90
40340;DHT22;26044;50.864;20.658;2022-08-21T05:53:13;21.30;99.90
40340;DHT22;26044;50.864;20.658;2022-08-21T05:55:41;21.20;99.90
40340;DHT22;26044;50.864;20.658;2022-08-21T05:58:16;21.20;99.90
40340;DHT22;26044;50.864;20.658;2022-08-21T06:00:45;21.30;99.90
40340;DHT22;26044;50.864;20.658;2022-08-21T06:03:23;21.40;99.90
40340;DHT22;26044;50.864;20.658;2022-08-21T06:05:49;21.40;99.90
40340;DHT22;26044;50.864;20.658;2022-08-21T06:08:19;21.40;99.90
40340;DHT22;26044;50.864;20.658;2022-08-21T06:10:47;21.40;99.90
40340;DHT22;26044;50.864;20.658;2022-08-21T06:13:15;21.40;99.90
40340;DHT22;26044;50.864;20.658;2022-08-21T06:15:42;21.50;99.90
40340;DHT22;26044;50.864;20.658;2022-08-21T06:18:09;21.60;99.90
40340;DHT22;26044;50.864;20.658;2022-08-21T06:20:36;21.80;99.90
40340;DHT22;26044;50.864;20.658;2022-08-21T06:23:03;21.80;99.90
40340;DHT22;26044;50.864;20.658;2022-08-21T06:25:30;21.80;99.90
40340;DHT22;26044;50.864;20.658;2022-08-21T06:28:06;22.00;99.90
40340;DHT22;26044;50.864;20.658;2022-08-21T06:30:34;22.00;99.90
40340;DHT22;26044;50.864;20.658;2022-08-21T06:33:01;22.10;99.90
40340;DHT22;26044;50.864;20.658;2022-08-21T06:35:29;22.00;99.90
40340;DHT22;26044;50.864;20.658;2022-08-21T06:37:57;22.10;99.90
40340;DHT22;26044;50.864;20.658;2022-08-21T06:40:25;22.20;99.90
40340;DHT22;26044;50.864;20.658;2022-08-21T06:42:55;22.30;99.90
40340;DHT22;26044;50.864;20.658;2022-08-21T06:45:23;22.40;99.90
40340;DHT22;26044;50.864;20.658;2022-08-21T06:47:53;22.50;99.90
40340;DHT22;26044;50.864;20.658;2022-08-21T06:50:20;22.60;99.90
40340;DHT22;26044;50.864;20.658;2022-08-21T06:52:47;22.70;99.90
40340;DHT22;26044;50.864;20.658;2022-08-21T06:55:14;22.80;99.90
40340;DHT22;26044;50.864;20.658;2022-08-21T06:57:47;22.80;99.90
40340;DHT22;26044;50.864;20.658;2022-08-21T07:00:19;22.90;99.90
40340;DHT22;26044;50.864;20.658;2022-08-21T07:02:46;23.00;99.90
40340;DHT22;26044;50.864;20.658;2022-08-21T07:05:12;23.10;99.90
40340;DHT22;26044;50.864;20.658;2022-08-21T07:07:44;23.20;99.90
40340;DHT22;26044;50.864;20.658;2022-08-21T07:10:12;23.20;99.90
40340;DHT22;26044;50.864;20.658;2022-08-21T07:12:49;23.30;99.90
40340;DHT22;26044;50.864;20.658;2022-08-21T07:15:28;23.40;99.90
40340;DHT22;26044;50.864;20.658;2022-08-21T07:17:56;23.50;99.90
40340;DHT22;26044;50.864;20.658;2022-08-21T07:20:23;23.50;99.90
40340;DHT22;26044;50.864;20.658;2022-08-21T07:22:50;23.60;99.90
40340;DHT22;26044;50.864;20.658;2022-08-21T07:25:17;23.60;99.90
40340;DHT22;26044;50.864;20.658;2022-08-21T07:27:44;23.60;99.90
40340;DHT22;26044;50.864;20.658;2022-08-21T07:30:11;23.80;99.90
40340;DHT22;26044;50.864;20.658;2022-08-21T07:32:38;23.90;99.90
40340;DHT22;26044;50.864;20.658;2022-08-21T07:35:05;24.00;99.90
40340;DHT22;26044;50.864;20.658;2022-08-21T07:37:31;24.00;99.90
40340;DHT22;26044;50.864;20.658;2022-08-21T07:39:58;24.00;99.90
40340;DHT22;26044;50.864;20.658;2022-08-21T07:42:25;24.00;99.90
40340;DHT22;26044;50.864;20.658;2022-08-21T07:44:54;24.10;99.90
40340;DHT22;26044;50.864;20.658;2022-08-21T07:47:22;24.10;99.90
40340;DHT22;26044;50.864;20.658;2022-08-21T07:50:11;24.10;99.90
40340;DHT22;26044;50.864;20.658;2022-08-21T07:52:40;24.10;99.90
40340;DHT22;26044;50.864;20.658;2022-08-21T07:55:09;24.20;99.90
40340;DHT22;26044;50.864;20.658;2022-08-21T07:57:36;24.30;99.90
40340;DHT22;26044;50.864;20.658;2022-08-21T08:00:05;24.40;99.90
40340;DHT22;26044;50.864;20.658;2022-08-21T08:02:32;24.60;99.90
40340;DHT22;26044;50.864;20.658;2022-08-21T08:05:09;24.60;99.90
40340;DHT22;26044;50.864;20.658;2022-08-21T08:07:38;24.70;99.90
40340;DHT22;26044;50.864;20.658;2022-08-21T08:10:05;24.80;99.90
40340;DHT22;26044;50.864;20.658;2022-08-21T08:12:34;25.00;99.90
40340;DHT22;26044;50.864;20.658;2022-08-21T08:15:04;25.10;99.90
40340;DHT22;26044;50.864;20.658;2022-08-21T08:17:32;25.10;99.90
40340;DHT22;26044;50.864;20.658;2022-08-21T08:19:59;25.10;99.90
40340;DHT22;26044;50.864;20.658;2022-08-21T08:22:29;25.20;99.90
40340;DHT22;26044;50.864;20.658;2022-08-21T08:24:56;25.40;99.90
40340;DHT22;26044;50.864;20.658;2022-08-21T08:27:23;25.30;99.90
40340;DHT22;26044;50.864;20.658;2022-08-21T08:29:50;25.50;99.90
40340;DHT22;26044;50.864;20.658;2022-08-21T08:32:18;25.60;99.90
40340;DHT22;26044;50.864;20.658;2022-08-21T08:34:56;25.70;99.90
40340;DHT22;26044;50.864;20.658;2022-08-21T08:37:25;25.80;99.90
40340;DHT22;26044;50.864;20.658;2022-08-21T08:40:00;25.70;99.90
40340;DHT22;26044;50.864;20.658;2022-08-21T08:42:34;25.80;99.90
40340;DHT22;26044;50.864;20.658;2022-08-21T08:45:10;25.90;99.90
40340;DHT22;26044;50.864;20.658;2022-08-21T08:47:42;26.00;99.90
40340;DHT22;26044;50.864;20.658;2022-08-21T08:50:18;26.00;99.90
40340;DHT22;26044;50.864;20.658;2022-08-21T08:53:10;26.00;99.90
40340;DHT22;26044;50.864;20.658;2022-08-21T08:55:42;26.00;99.90
40340;DHT22;26044;50.864;20.658;2022-08-21T08:58:25;26.00;99.90
40340;DHT22;26044;50.864;20.658;2022-08-21T09:00:54;26.10;99.90
40340;DHT22;26044;50.864;20.658;2022-08-21T09:03:26;26.10;99.90
40340;DHT22;26044;50.864;20.658;2022-08-21T09:06:06;26.00;99.90
40340;DHT22;26044;50.864;20.658;2022-08-21T09:14:37;26.10;99.90
40340;DHT22;26044;50.864;20.658;2022-08-21T09:20:03;26.30;99.90
40340;DHT22;26044;50.864;20.658;2022-08-21T09:23:01;26.40;99.90
40340;DHT22;26044;50.864;20.658;2022-08-21T09:26:04;26.30;99.90
40340;DHT22;26044;50.864;20.658;2022-08-21T09:28:34;26.30;99.90
40340;DHT22;26044;50.864;20.658;2022-08-21T09:31:06;26.30;99.90
40340;DHT22;26044;50.864;20.658;2022-08-21T09:33:33;26.40;99.90
40340;DHT22;26044;50.864;20.658;2022-08-21T09:36:00;26.30;99.90
40340;DHT22;26044;50.864;20.658;2022-08-21T09:38:35;26.30;99.90
40340;DHT22;26044;50.864;20.658;2022-08-21T09:41:04;26.50;99.90
40340;DHT22;26044;50.864;20.658;2022-08-21T09:43:32;26.60;99.90
40340;DHT22;26044;50.864;20.658;2022-08-21T09:48:46;26.70;99.90
40340;DHT22;26044;50.864;20.658;2022-08-21T09:51:20;26.70;99.90
40340;DHT22;26044;50.864;20.658;2022-08-21T09:53:58;26.70;99.90
40340;DHT22;26044;50.864;20.658;2022-08-21T09:56:36;27.30;99.90
40340;DHT22;26044;50.864;20.658;2022-08-21T09:59:32;27.90;99.90
40340;DHT22;26044;50.864;20.658;2022-08-21T10:02:25;28.00;99.90
40340;DHT22;26044;50.864;20.658;2022-08-21T10:04:55;28.20;99.90
40340;DHT22;26044;50.864;20.658;2022-08-21T10:07:24;27.90;99.90
40340;DHT22;26044;50.864;20.658;2022-08-21T10:10:12;27.60;99.90
40340;DHT22;26044;50.864;20.658;2022-08-21T10:18:26;27.70;99.90
40340;DHT22;26044;50.864;20.658;2022-08-21T10:21:01;27.40;99.90
40340;DHT22;26044;50.864;20.658;2022-08-21T10:23:41;27.30;99.90
40340;DHT22;26044;50.864;20.658;2022-08-21T10:29:17;27.00;99.90
40340;DHT22;26044;50.864;20.658;2022-08-21T10:32:00;26.90;99.90
40340;DHT22;26044;50.864;20.658;2022-08-21T10:35:12;26.80;99.90
40340;DHT22;26044;50.864;20.658;2022-08-21T10:38:10;26.60;99.90
40340;DHT22;26044;50.864;20.658;2022-08-21T10:52:25;26.60;99.90
40340;DHT22;26044;50.864;20.658;2022-08-21T10:55:02;26.70;99.90
40340;DHT22;26044;50.864;20.658;2022-08-21T10:57:46;26.80;99.90
40340;DHT22;26044;50.864;20.658;2022-08-21T11:00:18;26.90;99.90
40340;DHT22;26044;50.864;20.658;2022-08-21T11:03:21;27.00;99.90
40340;DHT22;26044;50.864;20.658;2022-08-21T11:05:58;27.10;99.90
40340;DHT22;26044;50.864;20.658;2022-08-21T11:08:39;27.10;99.90
40340;DHT22;26044;50.864;20.658;2022-08-21T11:11:13;27.20;99.90
40340;DHT22;26044;50.864;20.658;2022-08-21T11:13:58;27.20;99.90
40340;DHT22;26044;50.864;20.658;2022-08-21T11:16:37;27.10;99.90
40340;DHT22;26044;50.864;20.658;2022-08-21T11:19:20;27.10;99.90
40340;DHT22;26044;50.864;20.658;2022-08-21T11:21:56;27.10;99.90
40340;DHT22;26044;50.864;20.658;2022-08-21T11:24:44;27.10;99.90
40340;DHT22;26044;50.864;20.658;2022-08-21T11:27:28;27.00;99.90
40340;DHT22;26044;50.864;20.658;2022-08-21T11:29:59;27.00;99.90
40340;DHT22;26044;50.864;20.658;2022-08-21T11:43:32;26.90;99.90
40340;DHT22;26044;50.864;20.658;2022-08-21T11:46:28;27.00;99.90
40340;DHT22;26044;50.864;20.658;2022-08-21T11:49:16;27.00;99.90
40340;DHT22;26044;50.864;20.658;2022-08-21T11:55:15;27.00;99.90
40340;DHT22;26044;50.864;20.658;2022-08-21T11:57:51;27.10;99.90
40340;DHT22;26044;50.864;20.658;2022-08-21T12:00:29;27.00;99.90
40340;DHT22;26044;50.864;20.658;2022-08-21T12:03:22;27.10;99.90
40340;DHT22;26044;50.864;20.658;2022-08-21T12:05:56;27.00;99.90
40340;DHT22;26044;50.864;20.658;2022-08-21T12:08:38;27.00;99.90
40340;DHT22;26044;50.864;20.658;2022-08-21T12:11:25;26.90;99.90
40340;DHT22;26044;50.864;20.658;2022-08-21T12:14:13;26.90;99.90
40340;DHT22;26044;50.864;20.658;2022-08-21T12:16:41;26.90;99.90
40340;DHT22;26044;50.864;20.658;2022-08-21T12:24:42;26.50;99.90
40340;DHT22;26044;50.864;20.658;2022-08-21T12:29:49;26.50;99.90
40340;DHT22;26044;50.864;20.658;2022-08-21T12:34:51;26.40;99.90
40340;DHT22;26044;50.864;20.658;2022-08-21T12:40:02;26.30;99.90
40340;DHT22;26044;50.864;20.658;2022-08-21T12:42:41;26.30;99.90
40340;DHT22;26044;50.864;20.658;2022-08-21T12:45:31;26.20;99.90
40340;DHT22;26044;50.864;20.658;2022-08-21T12:48:20;26.20;99.90
40340;DHT22;26044;50.864;20.658;2022-08-21T12:51:26;26.20;99.90
40340;DHT22;26044;50.864;20.658;2022-08-21T12:53:56;26.10;99.90
40340;DHT22;26044;50.864;20.658;2022-08-21T12:56:26;26.10;99.90
40340;DHT22;26044;50.864;20.658;2022-08-21T12:58:56;26.10;99.90
40340;DHT22;26044;50.864;20.658;2022-08-21T13:01:29;26.10;99.90
40340;DHT22;26044;50.864;20.658;2022-08-21T13:04:02;26.10;99.90
40340;DHT22;26044;50.864;20.658;2022-08-21T13:06:38;26.10;99.90
40340;DHT22;26044;50.864;20.658;2022-08-21T13:09:13;26.00;99.90
40340;DHT22;26044;50.864;20.658;2022-08-21T13:11:43;26.00;99.90
40340;DHT22;26044;50.864;20.658;2022-08-21T13:14:43;25.90;99.90
40340;DHT22;26044;50.864;20.658;2022-08-21T13:17:12;25.90;99.90
40340;DHT22;26044;50.864;20.658;2022-08-21T13:20:00;25.90;99.90
40340;DHT22;26044;50.864;20.658;2022-08-21T13:22:28;25.80;99.90
40340;DHT22;26044;50.864;20.658;2022-08-21T13:25:01;25.80;99.90
40340;DHT22;26044;50.864;20.658;2022-08-21T13:27:32;25.80;99.90
40340;DHT22;26044;50.864;20.658;2022-08-21T13:32:30;25.80;99.90
40340;DHT22;26044;50.864;20.658;2022-08-21T13:34:59;25.80;99.90
40340;DHT22;26044;50.864;20.658;2022-08-21T13:37:35;25.80;99.90
40340;DHT22;26044;50.864;20.658;2022-08-21T13:40:02;25.80;99.90
40340;DHT22;26044;50.864;20.658;2022-08-21T13:42:33;25.70;99.90
40340;DHT22;26044;50.864;20.658;2022-08-21T13:45:00;25.80;99.90
40340;DHT22;26044;50.864;20.658;2022-08-21T13:47:29;25.70;99.90
40340;DHT22;26044;50.864;20.658;2022-08-21T13:49:57;25.80;99.90
40340;DHT22;26044;50.864;20.658;2022-08-21T13:52:26;25.80;99.90
40340;DHT22;26044;50.864;20.658;2022-08-21T13:54:58;25.80;99.90
40340;DHT22;26044;50.864;20.658;2022-08-21T13:57:31;25.90;99.90
40340;DHT22;26044;50.864;20.658;2022-08-21T14:00:18;25.90;99.90
40340;DHT22;26044;50.864;20.658;2022-08-21T14:02:48;25.90;99.90
40340;DHT22;26044;50.864;20.658;2022-08-21T14:05:45;26.00;99.90
40340;DHT22;26044;50.864;20.658;2022-08-21T14:08:14;26.00;99.90
40340;DHT22;26044;50.864;20.658;2022-08-21T14:10:43;26.10;99.90
40340;DHT22;26044;50.864;20.658;2022-08-21T14:16:13;26.20;99.90
40340;DHT22;26044;50.864;20.658;2022-08-21T14:18:52;26.30;99.90
40340;DHT22;26044;50.864;20.658;2022-08-21T14:21:34;26.30;99.90
40340;DHT22;26044;50.864;20.658;2022-08-21T14:24:07;26.30;99.90
40340;DHT22;26044;50.864;20.658;2022-08-21T14:26:37;26.30;99.90
40340;DHT22;26044;50.864;20.658;2022-08-21T14:29:07;26.30;99.90
40340;DHT22;26044;50.864;20.658;2022-08-21T14:31:36;26.30;99.90
40340;DHT22;26044;50.864;20.658;2022-08-21T14:34:11;26.30;99.90
40340;DHT22;26044;50.864;20.658;2022-08-21T14:36:46;26.30;99.90
40340;DHT22;26044;50.864;20.658;2022-08-21T14:39:13;26.30;99.90
40340;DHT22;26044;50.864;20.658;2022-08-21T14:41:41;26.20;99.90
40340;DHT22;26044;50.864;20.658;2022-08-21T14:44:09;26.20;99.90
40340;DHT22;26044;50.864;20.658;2022-08-21T14:46:37;26.30;99.90
40340;DHT22;26044;50.864;20.658;2022-08-21T14:49:25;26.20;99.90
40340;DHT22;26044;50.864;20.658;2022-08-21T14:51:55;26.30;99.90
40340;DHT22;26044;50.864;20.658;2022-08-21T14:54:28;26.30;99.90
40340;DHT22;26044;50.864;20.658;2022-08-21T14:57:02;26.30;99.90
40340;DHT22;26044;50.864;20.658;2022-08-21T14:59:30;26.20;99.90
40340;DHT22;26044;50.864;20.658;2022-08-21T15:01:59;26.30;99.90
40340;DHT22;26044;50.864;20.658;2022-08-21T15:04:26;26.20;99.90
40340;DHT22;26044;50.864;20.658;2022-08-21T15:06:52;26.10;99.90
40340;DHT22;26044;50.864;20.658;2022-08-21T15:09:19;26.20;99.90
40340;DHT22;26044;50.864;20.658;2022-08-21T15:11:46;26.10;99.90
40340;DHT22;26044;50.864;20.658;2022-08-21T15:14:21;26.20;99.90
40340;DHT22;26044;50.864;20.658;2022-08-21T15:16:49;26.10;99.90
40340;DHT22;26044;50.864;20.658;2022-08-21T15:19:17;26.20;99.90
40340;DHT22;26044;50.864;20.658;2022-08-21T15:21:43;26.20;99.90
40340;DHT22;26044;50.864;20.658;2022-08-21T15:24:10;26.10;99.90
40340;DHT22;26044;50.864;20.658;2022-08-21T15:26:37;26.20;99.90
40340;DHT22;26044;50.864;20.658;2022-08-21T15:29:06;26.20;99.90
40340;DHT22;26044;50.864;20.658;2022-08-21T15:31:35;26.20;99.90
40340;DHT22;26044;50.864;20.658;2022-08-21T15:34:02;26.10;99.90
40340;DHT22;26044;50.864;20.658;2022-08-21T15:36:29;26.10;99.90
40340;DHT22;26044;50.864;20.658;2022-08-21T15:38:56;26.10;99.90
40340;DHT22;26044;50.864;20.658;2022-08-21T15:41:23;26.10;99.90
40340;DHT22;26044;50.864;20.658;2022-08-21T15:43:51;26.10;99.90
40340;DHT22;26044;50.864;20.658;2022-08-21T15:46:19;26.00;99.90
40340;DHT22;26044;50.864;20.658;2022-08-21T15:48:46;26.00;99.90
40340;DHT22;26044;50.864;20.658;2022-08-21T15:51:14;25.90;99.90
40340;DHT22;26044;50.864;20.658;2022-08-21T15:53:41;25.80;99.90
40340;DHT22;26044;50.864;20.658;2022-08-21T15:56:22;25.80;99.90
40340;DHT22;26044;50.864;20.658;2022-08-21T15:58:51;25.70;99.90
40340;DHT22;26044;50.864;20.658;2022-08-21T16:01:20;25.70;99.90
40340;DHT22;26044;50.864;20.658;2022-08-21T16:03:50;25.70;99.90
40340;DHT22;26044;50.864;20.658;2022-08-21T16:06:18;25.70;99.90
40340;DHT22;26044;50.864;20.658;2022-08-21T16:09:04;25.70;99.90
40340;DHT22;26044;50.864;20.658;2022-08-21T16:11:30;25.70;99.90
40340;DHT22;26044;50.864;20.658;2022-08-21T16:13:58;25.60;99.90
40340;DHT22;26044;50.864;20.658;2022-08-21T16:16:25;25.60;99.90
40340;DHT22;26044;50.864;20.658;2022-08-21T16:18:52;25.50;99.90
40340;DHT22;26044;50.864;20.658;2022-08-21T16:21:20;25.50;99.90
40340;DHT22;26044;50.864;20.658;2022-08-21T16:23:47;25.40;99.90
40340;DHT22;26044;50.864;20.658;2022-08-21T16:26:15;25.40;99.90
40340;DHT22;26044;50.864;20.658;2022-08-21T16:28:44;25.30;99.90
40340;DHT22;26044;50.864;20.658;2022-08-21T16:31:14;25.30;99.90
40340;DHT22;26044;50.864;20.658;2022-08-21T16:33:45;25.30;99.90
40340;DHT22;26044;50.864;20.658;2022-08-21T16:36:14;25.30;99.90
40340;DHT22;26044;50.864;20.658;2022-08-21T16:38:42;25.30;99.90
40340;DHT22;26044;50.864;20.658;2022-08-21T16:41:15;25.20;99.90
40340;DHT22;26044;50.864;20.658;2022-08-21T16:43:43;25.20;99.90
40340;DHT22;26044;50.864;20.658;2022-08-21T16:46:12;25.20;99.90
40340;DHT22;26044;50.864;20.658;2022-08-21T16:48:41;25.10;99.90